Time;durP1;ratioP1;P1;durP2;ratioP2;P2;SDS_P1;SDS_P2;PMS_P1;PMS_P2;Temp;Humidity;BMP_temperature;BMP_pressure;BME280_temperature;BME280_humidity;BME280_pressure;Samples;Min_cycle;Max_cycle;Signal;HPM_P1;HPM_P2
2022/01/01 07:58:43;;;;;;;10.15;5.65;;;;;;;11.58;91.93;102251.75;5272665;28;20419;-74
2022/01/01 08:01:14;;;;;;;10.48;5.47;;;;;;;11.59;92.31;102245.09;5237992;28;20443;-74
2022/01/01 08:03:49;;;;;;;14.88;5.80;;;;;;;11.57;91.69;102247.28;5252430;28;20029;-74
2022/01/01 08:06:21;;;;;;;14.85;6.18;;;;;;;11.61;92.13;102245.66;5258178;28;20031;-75
2022/01/01 08:08:52;;;;;;;14.05;6.90;;;;;;;11.63;91.51;102260.16;5257472;28;20029;-74
2022/01/01 08:11:24;;;;;;;12.32;5.70;;;;;;;11.65;91.98;102248.75;5258642;28;20025;-70
2022/01/01 08:13:56;;;;;;;10.75;5.10;;;;;;;11.64;91.76;102256.25;5240417;28;20032;-74
2022/01/01 08:16:27;;;;;;;9.18;5.72;;;;;;;11.66;91.21;102248.50;5236657;28;20108;-75
2022/01/01 08:18:58;;;;;;;12.05;5.82;;;;;;;11.68;91.43;102251.88;5244053;28;20029;-75
2022/01/01 08:21:31;;;;;;;11.38;6.22;;;;;;;11.71;91.00;102254.09;5258121;28;20066;-75
2022/01/01 08:24:02;;;;;;;10.93;5.95;;;;;;;11.72;91.06;102249.38;5257295;28;20034;-75
2022/01/01 08:26:33;;;;;;;11.80;5.70;;;;;;;11.72;91.49;102255.78;5258082;28;20380;-75
2022/01/01 08:29:05;;;;;;;8.75;6.00;;;;;;;11.73;91.18;102251.06;5252698;28;20484;-75
2022/01/01 08:31:36;;;;;;;13.75;5.72;;;;;;;11.74;91.00;102253.56;5255731;28;20503;-75
2022/01/01 08:34:07;;;;;;;13.65;6.40;;;;;;;11.78;90.65;102262.22;5257801;28;20052;-75
2022/01/01 08:36:39;;;;;;;11.13;6.90;;;;;;;11.77;90.62;102257.78;5256670;28;20036;-75
2022/01/01 08:39:10;;;;;;;8.90;5.55;;;;;;;11.77;90.33;102259.72;5249227;28;20045;-75
2022/01/01 08:41:43;;;;;;;10.60;5.88;;;;;;;11.75;91.05;102255.25;5237231;28;20037;-75
2022/01/01 08:44:16;;;;;;;10.88;6.25;;;;;;;11.75;90.66;102259.97;5248613;28;20030;-75
2022/01/01 08:46:47;;;;;;;11.43;6.50;;;;;;;11.73;90.89;102253.81;5251695;28;20068;-74
2022/01/01 08:49:18;;;;;;;13.20;6.28;;;;;;;11.78;90.78;102266.94;5257709;28;20449;-75
2022/01/01 08:51:55;;;;;;;10.45;5.50;;;;;;;11.78;90.24;102258.59;5256781;28;20095;-74
2022/01/01 08:54:26;;;;;;;8.40;5.70;;;;;;;11.76;90.26;102267.22;5257298;28;20022;-74
2022/01/01 08:56:59;;;;;;;13.00;5.88;;;;;;;11.78;90.12;102270.56;5257437;28;20049;-74
2022/01/01 08:59:30;;;;;;;13.65;6.18;;;;;;;11.78;90.96;102258.59;5253368;28;20025;-74
2022/01/01 09:02:02;;;;;;;11.35;6.55;;;;;;;11.77;90.32;102259.72;5236915;28;20017;-74
2022/01/01 09:04:33;;;;;;;13.02;7.55;;;;;;;11.74;90.59;102248.03;5245362;28;20408;-74
2022/01/01 09:07:05;;;;;;;12.50;5.93;;;;;;;11.78;90.31;102247.47;5255795;28;20139;-75
2022/01/01 09:09:38;;;;;;;13.75;5.90;;;;;;;11.76;91.00;102245.00;5246297;28;20396;-73
2022/01/01 09:12:12;;;;;;;11.35;5.82;;;;;;;11.79;90.60;102250.00;5242954;28;20018;-74
2022/01/01 09:14:44;;;;;;;10.35;6.03;;;;;;;11.73;90.25;102243.56;5239070;28;20497;-73
2022/01/01 09:17:16;;;;;;;8.50;5.70;;;;;;;11.73;90.38;102240.78;5224387;28;20038;-73
2022/01/01 09:19:48;;;;;;;13.07;6.78;;;;;;;11.73;90.75;102240.78;5242140;28;20049;-73
2022/01/01 09:22:19;;;;;;;11.32;7.65;;;;;;;11.76;90.84;102245.00;5242995;28;20439;-74
2022/01/01 09:24:51;;;;;;;11.77;6.35;;;;;;;11.74;90.63;102242.47;5243424;28;20022;-73
2022/01/01 09:27:22;;;;;;;11.07;7.47;;;;;;;11.70;90.18;102241.28;5240717;28;20045;-73
2022/01/01 09:29:53;;;;;;;9.80;6.88;;;;;;;11.72;90.15;102246.59;5222562;28;20076;-73
2022/01/01 09:32:28;;;;;;;9.55;7.03;;;;;;;11.63;90.49;102239.84;5221939;28;20497;-74
2022/01/01 09:35:00;;;;;;;10.43;6.35;;;;;;;11.67;90.82;102243.78;5233481;28;20049;-74
2022/01/01 09:37:32;;;;;;;10.93;6.30;;;;;;;11.67;90.73;102247.38;5241694;28;20033;-74
2022/01/01 09:40:05;;;;;;;10.65;6.20;;;;;;;11.61;91.00;102242.06;5222568;28;20029;-73
2022/01/01 09:42:40;;;;;;;12.43;5.88;;;;;;;11.65;90.67;102244.03;5227704;28;20630;-75
2022/01/01 09:45:11;;;;;;;10.88;6.30;;;;;;;11.65;90.79;102238.47;5239458;28;20100;-73
2022/01/01 09:47:43;;;;;;;9.00;6.20;;;;;;;11.67;91.03;102236.28;5225235;28;20046;-75
2022/01/01 09:50:15;;;;;;;8.55;6.25;;;;;;;11.61;91.21;102240.13;5223426;28;20496;-73
2022/01/01 09:52:46;;;;;;;11.77;6.00;;;;;;;11.63;91.37;102237.91;5226232;28;20029;-75
2022/01/01 09:55:17;;;;;;;10.98;6.13;;;;;;;11.59;91.48;102228.41;5228999;28;20105;-74
2022/01/01 09:57:48;;;;;;;12.32;6.35;;;;;;;11.61;91.34;102222.63;5241579;28;20538;-76
2022/01/01 10:00:20;;;;;;;15.43;7.40;;;;;;;11.60;91.56;102221.75;5241666;28;20057;-74
2022/01/01 10:02:51;;;;;;;13.35;6.18;;;;;;;11.60;91.58;102224.53;5242942;28;20032;-73
2022/01/01 10:05:22;;;;;;;11.60;6.45;;;;;;;11.60;90.99;102224.53;5235284;28;20592;-74
2022/01/01 10:07:54;;;;;;;12.18;6.75;;;;;;;11.63;91.66;102212.91;5222295;28;20057;-75
2022/01/01 10:10:26;;;;;;;9.00;6.40;;;;;;;11.59;91.15;102208.97;5230926;28;20029;-75
2022/01/01 10:12:57;;;;;;;11.15;7.30;;;;;;;11.63;91.10;102210.13;5239801;28;20125;-77
2022/01/01 10:15:35;;;;;;;8.35;6.55;;;;;;;11.62;90.83;102199.28;5227341;28;20057;-78
2022/01/01 10:18:07;;;;;;;11.10;6.78;;;;;;;11.61;91.63;102203.16;5245468;28;20029;-77
2022/01/01 10:20:43;;;;;;;8.55;6.35;;;;;;;11.65;91.65;102198.72;5243058;28;20095;-78
2022/01/01 10:23:16;;;;;;;10.23;6.97;;;;;;;11.61;91.63;102198.44;5243063;28;20084;-78
2022/01/01 10:28:37;;;;;;;11.13;6.65;;;;;;;11.66;91.63;102176.25;5242795;28;20481;-78
2022/01/01 10:31:09;;;;;;;7.88;5.97;;;;;;;11.64;91.85;102178.44;5232598;28;20053;-78
2022/01/01 10:33:46;;;;;;;9.23;6.13;;;;;;;11.65;91.39;102185.66;5245192;28;20036;-78
2022/01/01 10:36:19;;;;;;;10.15;6.78;;;;;;;11.67;91.72;102180.69;5237128;28;20446;-78
2022/01/01 10:38:51;;;;;;;10.23;6.20;;;;;;;11.75;92.13;102180.19;5241214;28;20017;-77
2022/01/01 10:41:22;;;;;;;9.95;6.75;;;;;;;11.74;91.62;102170.19;5242112;28;20083;-77
2022/01/01 10:44:05;;;;;;;11.35;6.60;;;;;;;11.78;91.24;102175.22;5233107;28;20022;-78
2022/01/01 10:46:37;;;;;;;10.73;6.00;;;;;;;11.78;91.19;102169.66;5228359;28;20476;-77
2022/01/01 10:52:27;;;;;;;15.98;8.75;;;;;;;11.84;91.21;102154.72;5221260;28;20049;-77
2022/01/01 10:55:06;;;;;;;10.52;5.95;;;;;;;11.88;91.05;102164.22;5219848;28;20404;-78
2022/01/01 10:57:41;;;;;;;7.72;6.00;;;;;;;11.89;90.81;102165.91;5233567;28;20057;-77
2022/01/01 11:00:23;;;;;;;8.73;6.38;;;;;;;11.91;90.86;102138.66;5230255;28;20040;-77
2022/01/01 11:02:57;;;;;;;10.80;6.18;;;;;;;11.89;91.22;102144.50;5227232;28;20112;-77
2022/01/01 11:05:34;;;;;;;10.85;5.72;;;;;;;11.89;90.87;102154.78;5227037;28;20060;-76
2022/01/01 11:08:08;;;;;;;8.85;5.13;;;;;;;11.90;90.68;102148.94;5232549;28;20032;-77
2022/01/01 11:10:41;;;;;;;6.63;5.25;;;;;;;11.89;91.37;102138.94;5233525;28;20030;-77
2022/01/01 11:13:12;;;;;;;7.43;4.88;;;;;;;11.90;91.17;102151.72;5239989;28;20025;-77
2022/01/01 11:15:44;;;;;;;10.27;5.35;;;;;;;11.92;90.67;102148.69;5224250;28;20032;-76
2022/01/01 11:18:17;;;;;;;11.45;5.32;;;;;;;11.92;90.75;102149.53;5230279;28;20068;-78
2022/01/01 11:20:50;;;;;;;10.77;4.93;;;;;;;11.99;90.52;102138.19;5230694;28;20057;-77
2022/01/01 11:23:22;;;;;;;8.93;4.82;;;;;;;12.03;89.85;102133.75;5231646;28;20018;-78
2022/01/01 11:25:54;;;;;;;8.25;5.00;;;;;;;12.04;89.79;102135.44;5224338;28;20033;-78
2022/01/01 11:28:26;;;;;;;7.72;5.20;;;;;;;12.05;90.27;102130.69;5240650;28;20044;-77
2022/01/01 11:31:12;;;;;;;14.38;6.35;;;;;;;12.14;90.04;102118.81;5239089;28;20481;-78
2022/01/01 11:33:45;;;;;;;;;;;;;;;12.28;90.21;102124.72;5240358;28;20068;-78
2022/01/01 11:36:23;;;;;;;9.57;5.28;;;;;;;12.30;89.95;102128.06;5232104;28;19953;-78
2022/01/01 11:38:58;;;;;;;6.18;4.40;;;;;;;12.35;89.24;102135.63;5219426;28;20053;-78
2022/01/01 11:41:41;;;;;;;9.50;4.78;;;;;;;12.40;89.10;102130.06;5230000;28;20033;-78
2022/01/01 11:44:30;;;;;;;6.20;4.22;;;;;;;12.44;88.46;102144.25;5229491;28;20033;-77
2022/01/01 11:47:05;;;;;;;7.40;4.45;;;;;;;12.42;88.45;102150.09;5220012;28;20037;-78
2022/01/01 11:49:37;;;;;;;;;;;;;;;12.47;88.13;102138.97;5232993;28;20021;-77
2022/01/01 11:52:08;;;;;;;9.60;4.63;;;;;;;12.38;88.32;102140.63;5238518;28;20375;-78
2022/01/01 11:54:42;;;;;;;8.15;5.20;;;;;;;12.37;88.54;102139.78;5230234;28;20030;-77
2022/01/01 11:57:20;;;;;;;7.03;5.07;;;;;;;12.38;88.57;102126.72;5239328;28;20044;-78
2022/01/01 12:00:00;;;;;;;6.15;4.07;;;;;;;12.37;88.07;102123.09;5220106;28;20065;-78
2022/01/01 12:02:34;;;;;;;5.53;4.35;;;;;;;12.36;88.11;102115.00;5220170;28;20039;-77
2022/01/01 12:05:11;;;;;;;9.30;5.10;;;;;;;12.38;88.71;102118.38;5219899;28;20086;-78
2022/01/01 12:07:59;;;;;;;8.25;4.53;;;;;;;12.36;88.73;102120.59;5219480;28;20014;-78
2022/01/01 12:10:33;;;;;;;6.68;4.43;;;;;;;12.37;88.32;102109.19;5232836;28;20025;-78
2022/01/01 12:13:09;;;;;;;9.27;4.95;;;;;;;12.39;88.69;102117.25;5234105;28;20029;-78
2022/01/01 12:15:42;;;;;;;9.75;4.63;;;;;;;12.38;89.06;102110.03;5233263;28;20029;-78
2022/01/01 12:18:17;;;;;;;6.32;4.22;;;;;;;12.41;89.28;102117.81;5236094;28;20104;-78
2022/01/01 12:20:52;;;;;;;6.78;4.10;;;;;;;12.44;88.80;102111.72;5240903;28;20029;-78
2022/01/01 12:23:27;;;;;;;6.33;4.47;;;;;;;12.44;88.39;102105.31;5240329;28;20024;-77
2022/01/01 12:25:58;;;;;;;6.28;4.40;;;;;;;12.49;88.62;102097.81;5238914;28;20291;-77
2022/01/01 12:28:35;;;;;;;8.35;5.88;;;;;;;12.55;88.54;102093.09;5239229;28;20468;-77
2022/01/01 12:31:10;;;;;;;6.07;3.95;;;;;;;12.62;88.71;102091.75;5240969;28;20036;-79
2022/01/01 12:33:42;;;;;;;5.68;4.43;;;;;;;12.62;88.25;102080.59;5241092;28;20131;-79
2022/01/01 12:36:19;;;;;;;7.28;3.83;;;;;;;12.70;88.00;102078.41;5240575;28;20028;-78
2022/01/01 12:38:56;;;;;;;7.07;4.53;;;;;;;12.73;87.64;102083.41;5229563;28;20393;-78
2022/01/01 12:41:35;;;;;;;7.70;5.20;;;;;;;12.75;87.67;102098.72;5239497;28;20028;-78
2022/01/01 12:44:09;;;;;;;7.68;5.15;;;;;;;12.76;87.66;102092.06;5233654;28;20022;-77
2022/01/01 12:46:58;;;;;;;5.60;3.67;;;;;;;12.78;87.70;102075.94;5244069;28;20033;-78
2022/01/01 12:49:33;;;;;;;7.35;4.10;;;;;;;12.78;87.42;102077.88;5242780;28;20017;-78
2022/01/01 12:52:09;;;;;;;7.47;4.90;;;;;;;12.81;87.60;102077.34;5229795;28;20034;-78
2022/01/01 12:54:44;;;;;;;7.40;4.28;;;;;;;12.86;87.58;102082.06;5224407;28;20034;-78
2022/01/01 12:57:19;;;;;;;6.45;4.32;;;;;;;12.91;87.73;102087.63;5223812;28;20377;-76
2022/01/01 12:59:50;;;;;;;6.97;4.40;;;;;;;12.88;86.98;102091.81;5243083;28;20392;-76
2022/01/01 13:02:23;;;;;;;6.57;3.65;;;;;;;12.91;87.14;102074.56;5235648;28;20028;-77
2022/01/01 13:05:01;;;;;;;4.95;3.50;;;;;;;12.94;87.09;102071.25;5241860;28;20074;-77
2022/01/01 13:07:32;;;;;;;5.45;4.05;;;;;;;12.95;87.25;102064.53;5242820;28;20025;-78
2022/01/01 13:10:05;;;;;;;4.55;3.90;;;;;;;12.91;86.93;102071.78;5225517;28;20504;-77
2022/01/01 13:12:36;;;;;;;5.40;3.67;;;;;;;12.96;87.23;102062.59;5228101;28;20366;-77
2022/01/01 13:15:08;;;;;;;6.80;4.03;;;;;;;12.96;87.07;102063.44;5229416;28;20033;-75
2022/01/01 13:17:43;;;;;;;5.97;3.80;;;;;;;12.96;86.90;102052.31;5224358;28;20053;-75
2022/01/01 13:20:17;;;;;;;9.27;4.30;;;;;;;12.96;86.98;102057.88;5242587;28;20378;-75
2022/01/01 13:22:49;;;;;;;8.43;4.22;;;;;;;12.99;87.17;102048.97;5244200;28;20032;-76
2022/01/01 13:25:20;;;;;;;4.47;3.50;;;;;;;12.99;87.18;102048.97;5236811;28;20492;-75
2022/01/01 13:27:53;;;;;;;4.40;3.25;;;;;;;13.07;87.01;102046.75;5241497;28;20030;-75
2022/01/01 13:30:25;;;;;;;5.45;3.70;;;;;;;13.06;86.85;102023.63;5223824;28;20049;-75
2022/01/01 13:32:57;;;;;;;4.60;3.78;;;;;;;13.07;87.09;102004.97;5222698;28;20033;-75
2022/01/01 13:35:29;;;;;;;4.85;3.63;;;;;;;13.10;87.40;101998.84;5238112;28;20033;-75
2022/01/01 13:38:07;;;;;;;8.18;3.88;;;;;;;13.09;87.41;102013.88;5225306;28;20037;-75
2022/01/01 13:40:38;;;;;;;4.22;3.50;;;;;;;13.10;87.14;102023.91;5230316;28;20034;-75
2022/01/01 13:43:10;;;;;;;4.90;3.75;;;;;;;13.11;87.05;102028.34;5234212;28;20551;-75
2022/01/01 13:45:42;;;;;;;6.35;3.20;;;;;;;13.11;86.86;102014.44;5222752;28;20037;-75
2022/01/01 13:48:14;;;;;;;3.45;3.00;;;;;;;13.12;86.88;102016.13;5226100;28;20385;-75
2022/01/01 13:50:47;;;;;;;5.90;3.28;;;;;;;13.12;86.91;102013.34;5244021;28;20530;-75
2022/01/01 13:53:18;;;;;;;5.82;3.30;;;;;;;13.10;86.85;102005.25;5238058;28;20483;-75
2022/01/01 13:55:53;;;;;;;7.32;3.65;;;;;;;13.11;86.97;102015.25;5243682;28;20037;-75
2022/01/01 13:58:27;;;;;;;5.47;3.13;;;;;;;13.10;86.71;102012.78;5238359;28;20401;-75
2022/01/01 14:00:58;;;;;;;6.53;3.53;;;;;;;13.10;86.37;102035.88;5236273;28;20117;-75
2022/01/01 14:03:31;;;;;;;7.90;5.82;;;;;;;13.12;86.76;102038.41;5222843;28;20022;-73
2022/01/01 14:06:02;;;;;;;4.80;3.00;;;;;;;13.11;86.63;102042.28;5229261;28;20025;-75
2022/01/01 14:08:34;;;;;;;4.82;2.70;;;;;;;13.11;87.37;102042.28;5236180;28;20473;-75
2022/01/01 14:11:05;;;;;;;4.25;3.30;;;;;;;13.12;87.42;102032.81;5235586;28;20033;-75
2022/01/01 14:13:38;;;;;;;4.40;3.13;;;;;;;13.11;87.29;102033.94;5236267;28;20022;-76
2022/01/01 14:16:19;;;;;;;5.80;3.42;;;;;;;13.14;87.38;102041.72;5243382;28;20037;-76
2022/01/01 14:18:51;;;;;;;4.15;3.05;;;;;;;13.13;87.11;102040.06;5243095;28;20366;-75
2022/01/01 14:21:26;;;;;;;7.13;3.53;;;;;;;13.13;86.84;102038.09;5232891;28;20080;-76
2022/01/01 14:24:03;;;;;;;5.95;4.55;;;;;;;13.14;86.96;102036.16;5232874;28;20038;-76
2022/01/01 14:26:45;;;;;;;5.18;3.10;;;;;;;13.14;87.45;102036.16;5241458;28;20148;-76
2022/01/01 14:29:21;;;;;;;3.67;3.08;;;;;;;13.11;87.11;102037.53;5221813;28;20101;-76
2022/01/01 14:31:57;;;;;;;5.38;2.63;;;;;;;13.15;86.95;102035.06;5234178;28;20033;-76
2022/01/01 14:34:28;;;;;;;5.75;3.00;;;;;;;13.13;87.36;102023.34;5233205;28;20041;-75
2022/01/01 14:37:03;;;;;;;4.43;3.30;;;;;;;13.11;87.66;102031.97;5226116;28;20088;-75
2022/01/01 14:39:38;;;;;;;5.05;3.05;;;;;;;13.09;87.40;102039.78;5242410;28;20022;-74
2022/01/01 14:42:15;;;;;;;4.72;4.03;;;;;;;13.11;86.96;102059.00;5229359;28;20034;-76
2022/01/01 14:44:46;;;;;;;4.90;3.28;;;;;;;13.09;87.47;102053.72;5234046;28;20025;-75
2022/01/01 14:47:28;;;;;;;5.47;3.33;;;;;;;13.09;87.73;102044.50;5242503;28;20045;-75
2022/01/01 14:50:05;;;;;;;5.25;3.00;;;;;;;13.06;87.73;102051.47;5238523;28;20107;-75
2022/01/01 14:52:41;;;;;;;3.95;3.10;;;;;;;13.06;87.33;102051.47;5228745;28;20374;-76
2022/01/01 14:55:36;;;;;;;4.22;3.33;;;;;;;13.05;87.64;102050.63;5242438;28;20025;-74
2022/01/01 14:58:11;;;;;;;5.18;3.53;;;;;;;13.00;87.58;102033.91;5236867;28;20401;-75
2022/01/01 15:00:46;;;;;;;;;;;;;;;13.05;87.75;102035.88;5225721;28;20171;-75
2022/01/01 15:03:18;;;;;;;3.70;2.80;;;;;;;12.98;87.66;102035.31;5239872;28;19999;-75
2022/01/01 15:05:52;;;;;;;3.75;3.08;;;;;;;12.96;87.53;102035.59;5241374;28;20163;-76
2022/01/01 15:08:28;;;;;;;3.97;2.97;;;;;;;12.93;88.30;102029.72;5232073;28;20022;-74
2022/01/01 15:11:04;;;;;;;9.20;3.92;;;;;;;12.93;87.89;102040.88;5235974;28;20121;-74
2022/01/01 15:13:37;;;;;;;4.60;3.00;;;;;;;12.91;88.11;102037.53;5239328;28;20069;-75
2022/01/01 15:16:10;;;;;;;4.40;3.22;;;;;;;12.89;87.99;102039.78;5242184;28;20029;-75
2022/01/01 15:18:47;;;;;;;5.75;2.70;;;;;;;12.88;88.09;102050.03;5231703;28;20034;-76
2022/01/01 15:21:37;;;;;;;4.65;2.78;;;;;;;12.87;88.21;102036.41;5224954;28;20091;-77
2022/01/01 15:24:18;;;;;;;4.60;2.60;;;;;;;12.84;88.51;102021.09;5240954;28;20457;-75
2022/01/01 15:26:53;;;;;;;4.90;2.83;;;;;;;12.82;88.47;102006.63;5240347;28;20025;-75
2022/01/01 15:29:43;;;;;;;4.85;3.17;;;;;;;12.80;88.51;101997.69;5242168;28;20033;-76
2022/01/01 15:35:23;;;;;;;4.65;2.92;;;;;;;12.77;89.10;101987.13;5233025;28;20384;-75
2022/01/01 15:38:04;;;;;;;6.68;2.85;;;;;;;12.76;89.05;101982.69;5240360;28;20045;-76
2022/01/01 15:41:26;;;;;;;4.10;2.42;;;;;;;12.75;88.91;101978.22;5236857;28;20119;-75
2022/01/01 15:43:35;;;;;;;5.93;2.58;;;;;;;12.74;88.99;101982.13;5240562;28;20025;-75
2022/01/01 15:46:06;;;;;;;6.60;2.90;;;;;;;12.74;89.10;101987.69;5238720;28;20040;-75
2022/01/01 15:48:41;;;;;;;4.55;2.90;;;;;;;12.75;88.92;101975.44;5222172;28;20037;-74
2022/01/01 15:51:14;;;;;;;5.80;2.60;;;;;;;12.72;88.98;101973.22;5238295;28;20036;-76
2022/01/01 15:53:46;;;;;;;3.38;2.67;;;;;;;12.70;89.21;101972.63;5236201;28;20034;-76
2022/01/01 15:56:18;;;;;;;6.43;3.67;;;;;;;12.69;89.12;101959.84;5240064;28;20048;-76
2022/01/01 15:59:00;;;;;;;6.78;3.22;;;;;;;12.68;89.31;101955.38;5223857;28;20046;-76
2022/01/01 16:01:43;;;;;;;5.95;3.35;;;;;;;12.68;89.06;101947.88;5218724;28;20077;-75
2022/01/01 16:04:37;;;;;;;3.45;2.40;;;;;;;12.67;89.37;101948.16;5228018;28;20462;-75
2022/01/01 16:07:10;;;;;;;5.38;3.35;;;;;;;12.64;89.29;101949.53;5241008;28;20101;-78
2022/01/01 16:09:49;;;;;;;6.50;2.88;;;;;;;12.64;88.91;101943.16;5230468;28;20022;-77
2022/01/01 16:12:24;;;;;;;6.22;3.40;;;;;;;12.61;89.58;101937.00;5229754;28;20026;-77
2022/01/01 16:15:06;;;;;;;4.88;2.88;;;;;;;12.59;89.06;101928.09;5239449;28;20033;-76
2022/01/01 16:17:40;;;;;;;8.80;5.03;;;;;;;12.59;89.21;101925.31;5236114;28;20026;-75
2022/01/01 16:20:13;;;;;;;8.32;3.28;;;;;;;12.57;89.57;101926.72;5223665;28;20112;-75
2022/01/01 16:22:45;;;;;;;4.97;2.88;;;;;;;12.56;89.44;101917.53;5225495;28;20021;-75
2022/01/01 16:25:19;;;;;;;6.05;2.90;;;;;;;12.56;89.21;101917.53;5227784;28;20065;-74
2022/01/01 16:27:52;;;;;;;5.68;3.15;;;;;;;12.56;89.54;101922.28;5244185;28;20025;-74
2022/01/01 16:30:26;;;;;;;5.07;2.65;;;;;;;12.54;89.86;101925.31;5245460;28;20117;-74
2022/01/01 16:33:03;;;;;;;5.00;3.60;;;;;;;12.53;89.56;101915.31;5243438;28;20037;-75
2022/01/01 16:35:35;;;;;;;4.95;2.60;;;;;;;12.52;89.54;101919.19;5224727;28;20100;-75
2022/01/01 16:38:07;;;;;;;5.35;3.05;;;;;;;12.51;89.97;101917.53;5230436;28;20037;-76
2022/01/01 16:40:55;;;;;;;4.22;2.80;;;;;;;12.53;90.00;101920.88;5244785;28;20033;-75
2022/01/01 16:43:33;;;;;;;3.90;2.88;;;;;;;12.53;89.68;101920.88;5235661;28;20088;-75
2022/01/01 16:46:11;;;;;;;5.65;3.17;;;;;;;12.52;90.11;101924.75;5224844;28;20030;-75
2022/01/01 16:49:04;;;;;;;4.90;2.90;;;;;;;12.51;89.57;101928.66;5224752;28;20033;-74
2022/01/01 16:51:43;;;;;;;13.77;10.15;;;;;;;12.50;89.91;101924.22;5225138;28;20064;-75
2022/01/01 16:54:16;;;;;;;4.32;2.80;;;;;;;12.48;89.70;101914.47;5245266;28;20021;-76
2022/01/01 16:56:55;;;;;;;4.80;3.20;;;;;;;12.48;90.28;101911.69;5244556;28;21981;-74
2022/01/01 16:59:30;;;;;;;6.63;2.80;;;;;;;12.46;90.30;101897.22;5242564;28;20017;-75
2022/01/01 17:02:08;;;;;;;5.10;2.95;;;;;;;12.44;90.25;101882.75;5242021;28;20052;-73
2022/01/01 17:04:55;;;;;;;5.13;3.25;;;;;;;12.40;90.50;101885.25;5234717;28;20029;-74
2022/01/01 17:07:27;;;;;;;5.82;3.45;;;;;;;12.41;90.38;101886.91;5235370;28;20033;-73
2022/01/01 17:09:59;;;;;;;7.68;3.80;;;;;;;12.40;90.62;101893.59;5223315;28;20041;-74
2022/01/01 17:12:32;;;;;;;4.53;3.50;;;;;;;12.40;89.91;101885.25;5237740;28;20068;-74
2022/01/01 17:15:04;;;;;;;3.60;3.00;;;;;;;12.37;90.35;101881.06;5228093;28;20109;-76
2022/01/01 17:18:18;;;;;;;4.60;3.30;;;;;;;12.38;89.78;101877.16;5231393;28;20038;-71
2022/01/01 17:20:55;;;;;;;5.20;3.15;;;;;;;12.36;89.98;101870.22;5235825;28;20519;-77
2022/01/01 17:23:47;;;;;;;5.03;3.20;;;;;;;12.35;89.83;101854.66;5240469;28;20042;-76
2022/01/01 17:26:22;;;;;;;7.72;4.57;;;;;;;12.33;90.05;101843.78;5245167;28;20036;-76
2022/01/01 17:29:00;;;;;;;7.05;3.80;;;;;;;12.31;90.33;101862.69;5244085;28;20498;-76
